sensor_id;sensor_type;location;lat;lon;timestamp;P1;durP1;ratioP1;P2;durP2;ratioP2
23634;SDS011;11994;51.038;16.974;2023-07-29T00:00:51;4.30;;;2.20;;
23634;SDS011;11994;51.038;16.974;2023-07-29T00:03:16;2.90;;;2.10;;
23634;SDS011;11994;51.038;16.974;2023-07-29T00:05:42;3.60;;;2.50;;
23634;SDS011;11994;51.038;16.974;2023-07-29T00:08:07;4.50;;;2.20;;
23634;SDS011;11994;51.038;16.974;2023-07-29T00:10:35;4.20;;;2.10;;
23634;SDS011;11994;51.038;16.974;2023-07-29T00:13:02;5.60;;;2.20;;
23634;SDS011;11994;51.038;16.974;2023-07-29T00:15:28;5.80;;;2.30;;
23634;SDS011;11994;51.038;16.974;2023-07-29T00:17:53;3.90;;;2.40;;
23634;SDS011;11994;51.038;16.974;2023-07-29T00:20:18;7.50;;;2.30;;
23634;SDS011;11994;51.038;16.974;2023-07-29T00:22:45;4.40;;;2.30;;
23634;SDS011;11994;51.038;16.974;2023-07-29T00:25:11;6.10;;;2.50;;
23634;SDS011;11994;51.038;16.974;2023-07-29T00:27:36;3.90;;;1.90;;
23634;SDS011;11994;51.038;16.974;2023-07-29T00:30:01;5.10;;;1.90;;
23634;SDS011;11994;51.038;16.974;2023-07-29T00:32:29;4.70;;;1.90;;
23634;SDS011;11994;51.038;16.974;2023-07-29T00:34:55;4.10;;;2.10;;
23634;SDS011;11994;51.038;16.974;2023-07-29T00:37:20;3.60;;;1.70;;
23634;SDS011;11994;51.038;16.974;2023-07-29T00:39:46;3.10;;;1.90;;
23634;SDS011;11994;51.038;16.974;2023-07-29T00:42:11;5.90;;;2.20;;
23634;SDS011;11994;51.038;16.974;2023-07-29T00:44:36;4.00;;;1.70;;
23634;SDS011;11994;51.038;16.974;2023-07-29T00:47:02;2.30;;;1.50;;
23634;SDS011;11994;51.038;16.974;2023-07-29T00:49:29;4.90;;;1.60;;
23634;SDS011;11994;51.038;16.974;2023-07-29T00:51:55;6.60;;;1.90;;
23634;SDS011;11994;51.038;16.974;2023-07-29T00:54:20;3.70;;;2.00;;
23634;SDS011;11994;51.038;16.974;2023-07-29T00:56:47;2.30;;;1.70;;
23634;SDS011;11994;51.038;16.974;2023-07-29T00:59:12;3.20;;;1.60;;
23634;SDS011;11994;51.038;16.974;2023-07-29T01:01:38;3.40;;;1.60;;
23634;SDS011;11994;51.038;16.974;2023-07-29T01:04:04;4.70;;;1.70;;
23634;SDS011;11994;51.038;16.974;2023-07-29T01:06:34;5.00;;;1.40;;
23634;SDS011;11994;51.038;16.974;2023-07-29T01:13:01;4.20;;;1.80;;
23634;SDS011;11994;51.038;16.974;2023-07-29T01:28:34;3.70;;;1.90;;
23634;SDS011;11994;51.038;16.974;2023-07-29T01:34:15;4.80;;;2.40;;
23634;SDS011;11994;51.038;16.974;2023-07-29T01:36:45;4.20;;;2.20;;
23634;SDS011;11994;51.038;16.974;2023-07-29T01:39:14;3.10;;;1.90;;
23634;SDS011;11994;51.038;16.974;2023-07-29T01:41:42;4.50;;;2.20;;
23634;SDS011;11994;51.038;16.974;2023-07-29T01:44:09;3.00;;;2.10;;
23634;SDS011;11994;51.038;16.974;2023-07-29T01:46:36;4.50;;;2.20;;
23634;SDS011;11994;51.038;16.974;2023-07-29T01:49:03;5.10;;;2.20;;
23634;SDS011;11994;51.038;16.974;2023-07-29T01:51:28;4.80;;;2.30;;
23634;SDS011;11994;51.038;16.974;2023-07-29T01:53:53;3.00;;;2.00;;
23634;SDS011;11994;51.038;16.974;2023-07-29T01:56:20;3.00;;;2.10;;
23634;SDS011;11994;51.038;16.974;2023-07-29T01:58:46;3.90;;;2.10;;
23634;SDS011;11994;51.038;16.974;2023-07-29T02:01:12;2.80;;;1.90;;
23634;SDS011;11994;51.038;16.974;2023-07-29T02:03:37;5.50;;;2.20;;
23634;SDS011;11994;51.038;16.974;2023-07-29T02:06:03;4.20;;;2.50;;
23634;SDS011;11994;51.038;16.974;2023-07-29T02:08:28;7.20;;;2.30;;
23634;SDS011;11994;51.038;16.974;2023-07-29T02:10:53;4.40;;;2.10;;
23634;SDS011;11994;51.038;16.974;2023-07-29T02:13:19;4.50;;;2.30;;
23634;SDS011;11994;51.038;16.974;2023-07-29T02:15:44;4.10;;;2.10;;
23634;SDS011;11994;51.038;16.974;2023-07-29T02:18:09;4.50;;;2.10;;
23634;SDS011;11994;51.038;16.974;2023-07-29T02:20:35;5.00;;;2.60;;
23634;SDS011;11994;51.038;16.974;2023-07-29T02:23:00;3.60;;;2.00;;
23634;SDS011;11994;51.038;16.974;2023-07-29T02:25:26;5.30;;;2.00;;
23634;SDS011;11994;51.038;16.974;2023-07-29T02:27:51;4.30;;;2.20;;
23634;SDS011;11994;51.038;16.974;2023-07-29T02:30:16;3.90;;;2.10;;
23634;SDS011;11994;51.038;16.974;2023-07-29T02:32:42;5.50;;;1.90;;
23634;SDS011;11994;51.038;16.974;2023-07-29T02:35:07;3.40;;;2.00;;
23634;SDS011;11994;51.038;16.974;2023-07-29T02:37:33;3.60;;;2.70;;
23634;SDS011;11994;51.038;16.974;2023-07-29T02:39:58;3.80;;;2.40;;
23634;SDS011;11994;51.038;16.974;2023-07-29T02:42:23;5.10;;;2.20;;
23634;SDS011;11994;51.038;16.974;2023-07-29T02:44:49;3.90;;;2.20;;
23634;SDS011;11994;51.038;16.974;2023-07-29T02:47:14;7.00;;;2.20;;
23634;SDS011;11994;51.038;16.974;2023-07-29T02:49:40;2.80;;;2.20;;
23634;SDS011;11994;51.038;16.974;2023-07-29T02:52:05;4.70;;;2.60;;
23634;SDS011;11994;51.038;16.974;2023-07-29T02:54:31;5.80;;;2.30;;
23634;SDS011;11994;51.038;16.974;2023-07-29T02:56:56;7.50;;;2.40;;
23634;SDS011;11994;51.038;16.974;2023-07-29T02:59:21;5.30;;;2.20;;
23634;SDS011;11994;51.038;16.974;2023-07-29T03:01:47;6.40;;;2.00;;
23634;SDS011;11994;51.038;16.974;2023-07-29T03:04:12;12.60;;;2.90;;
23634;SDS011;11994;51.038;16.974;2023-07-29T03:06:38;5.10;;;2.10;;
23634;SDS011;11994;51.038;16.974;2023-07-29T03:09:03;3.40;;;2.20;;
23634;SDS011;11994;51.038;16.974;2023-07-29T03:11:30;2.70;;;2.00;;
23634;SDS011;11994;51.038;16.974;2023-07-29T03:13:56;6.60;;;2.30;;
23634;SDS011;11994;51.038;16.974;2023-07-29T03:16:22;5.80;;;2.20;;
23634;SDS011;11994;51.038;16.974;2023-07-29T03:18:48;4.50;;;2.60;;
23634;SDS011;11994;51.038;16.974;2023-07-29T03:21:14;5.10;;;2.80;;
23634;SDS011;11994;51.038;16.974;2023-07-29T03:23:39;6.90;;;2.80;;
23634;SDS011;11994;51.038;16.974;2023-07-29T03:26:06;4.30;;;2.60;;
23634;SDS011;11994;51.038;16.974;2023-07-29T03:28:36;3.60;;;2.70;;
23634;SDS011;11994;51.038;16.974;2023-07-29T03:31:02;5.70;;;2.80;;
23634;SDS011;11994;51.038;16.974;2023-07-29T03:33:28;5.80;;;3.10;;
23634;SDS011;11994;51.038;16.974;2023-07-29T03:35:53;5.80;;;3.10;;
23634;SDS011;11994;51.038;16.974;2023-07-29T03:38:19;7.40;;;3.50;;
23634;SDS011;11994;51.038;16.974;2023-07-29T03:40:45;7.70;;;3.40;;
23634;SDS011;11994;51.038;16.974;2023-07-29T03:43:10;5.40;;;2.60;;
23634;SDS011;11994;51.038;16.974;2023-07-29T03:45:35;4.70;;;2.80;;
23634;SDS011;11994;51.038;16.974;2023-07-29T03:48:02;4.70;;;2.80;;
